Time;durP1;ratioP1;P1;durP2;ratioP2;P2;SDS_P1;SDS_P2;PMS_P1;PMS_P2;Temp;Humidity;BMP_temperature;BMP_pressure;BME280_temperature;BME280_humidity;BME280_pressure;Samples;Min_cycle;Max_cycle;Signal;HPM_P1;HPM_P2
2021/03/04 00:02:20;;;;;;;4.15;3.53;;;20.60;40.80;;;;;;6253667;22;20015;-79
2021/03/04 00:04:45;;;;;;;4.68;3.67;;;20.60;40.30;;;;;;6279106;22;20073;-79
2021/03/04 00:07:11;;;;;;;4.50;3.47;;;20.60;40.30;;;;;;6306610;22;20019;-79
2021/03/04 00:09:37;;;;;;;5.15;3.97;;;20.60;40.20;;;;;;6253689;22;20089;-79
2021/03/04 00:12:02;;;;;;;5.07;3.90;;;20.60;40.10;;;;;;6279199;22;20034;-79
2021/03/04 00:14:29;;;;;;;6.18;3.95;;;20.60;40.80;;;;;;6250481;22;20312;-79
2021/03/04 00:16:55;;;;;;;6.60;3.80;;;20.60;40.30;;;;;;6248904;22;20015;-79
2021/03/04 00:19:21;;;;;;;7.22;4.38;;;20.50;40.20;;;;;;6283144;22;20023;-79
2021/03/04 00:21:47;;;;;;;4.75;3.70;;;20.50;40.20;;;;;;6247346;22;20015;-79
2021/03/04 00:24:14;;;;;;;5.38;3.80;;;20.50;40.20;;;;;;6253972;22;20037;-80
2021/03/04 00:26:40;;;;;;;4.43;3.67;;;20.60;40.20;;;;;;6278972;22;20022;-79
2021/03/04 00:29:08;;;;;;;5.22;3.60;;;20.50;40.10;;;;;;6278923;22;20011;-80
2021/03/04 00:31:34;;;;;;;3.92;3.15;;;20.50;40.10;;;;;;6253361;22;20080;-80
2021/03/04 00:33:59;;;;;;;6.28;3.95;;;20.60;40.10;;;;;;6286596;22;20024;-79
2021/03/04 00:36:25;;;;;;;5.82;3.40;;;20.50;40.70;;;;;;6247037;22;20041;-79
2021/03/04 00:38:51;;;;;;;6.05;3.55;;;20.60;40.20;;;;;;6249858;22;20472;-79
2021/03/04 00:41:17;;;;;;;4.38;3.63;;;20.50;40.10;;;;;;6250663;22;20021;-79
2021/03/04 00:43:42;;;;;;;3.90;3.47;;;20.60;40.10;;;;;;6243547;22;20096;-79
2021/03/04 00:46:08;;;;;;;5.40;3.90;;;20.50;40.40;;;;;;6253768;22;20015;-79
2021/03/04 00:48:33;;;;;;;5.13;3.63;;;20.50;40.10;;;;;;6249933;22;20011;-79
2021/03/04 00:50:59;;;;;;;6.25;3.95;;;20.50;40.20;;;;;;6279825;22;20015;-79
2021/03/04 00:53:25;;;;;;;3.70;3.30;;;20.50;40.70;;;;;;6254611;22;20411;-79
2021/03/04 00:55:50;;;;;;;3.88;3.17;;;20.50;40.10;;;;;;6280669;22;20011;-79
2021/03/04 00:58:16;;;;;;;3.92;3.53;;;20.60;40.30;;;;;;6255376;22;20019;-79
2021/03/04 01:00:42;;;;;;;5.03;3.40;;;20.50;40.20;;;;;;6280127;22;20069;-79
2021/03/04 01:03:07;;;;;;;4.95;3.47;;;20.50;40.10;;;;;;6254819;22;20015;-79
2021/03/04 01:05:34;;;;;;;5.00;3.55;;;20.50;40.00;;;;;;6280180;22;20103;-79
2021/03/04 01:07:59;;;;;;;5.00;3.58;;;20.50;40.20;;;;;;6306807;22;20064;-79
2021/03/04 01:10:37;;;;;;;4.10;3.47;;;20.50;40.30;;;;;;6279776;22;20019;-79
2021/03/04 01:13:02;;;;;;;4.13;3.67;;;20.50;40.20;;;;;;6252629;22;20445;-79
2021/03/04 01:15:30;;;;;;;4.13;3.72;;;20.50;40.10;;;;;;6251210;22;20027;-79
2021/03/04 01:17:56;;;;;;;4.07;3.10;;;20.50;40.10;;;;;;6225267;22;20019;-79
2021/03/04 01:20:22;;;;;;;5.45;3.55;;;20.50;40.10;;;;;;6248816;22;20019;-79
2021/03/04 01:22:48;;;;;;;4.43;3.47;;;20.50;40.00;;;;;;6254600;22;20377;-79
2021/03/04 01:25:15;;;;;;;4.93;4.07;;;20.50;40.10;;;;;;6279704;22;20475;-79
2021/03/04 01:27:40;;;;;;;5.93;3.40;;;20.50;40.10;;;;;;6251395;22;20020;-79
2021/03/04 01:30:08;;;;;;;4.45;3.72;;;20.50;40.20;;;;;;6249408;22;20019;-79
2021/03/04 01:32:34;;;;;;;4.68;3.72;;;20.40;40.20;;;;;;6242241;22;20007;-79
2021/03/04 01:35:01;;;;;;;5.38;3.88;;;20.40;40.10;;;;;;6254409;22;20027;-80
2021/03/04 01:37:26;;;;;;;4.78;2.75;;;20.50;40.10;;;;;;6287519;22;20015;-79
2021/03/04 01:39:53;;;;;;;4.35;3.63;;;20.50;40.30;;;;;;6246532;22;20018;-80
2021/03/04 01:42:18;;;;;;;4.68;3.50;;;20.50;40.20;;;;;;6285989;22;20015;-79
2021/03/04 01:44:44;;;;;;;5.47;3.63;;;20.50;40.10;;;;;;6248004;22;20069;-79
2021/03/04 01:47:10;;;;;;;3.85;3.30;;;20.40;40.10;;;;;;6285882;22;20016;-79
2021/03/04 01:49:36;;;;;;;4.45;3.20;;;20.50;40.20;;;;;;6254391;22;20022;-79
2021/03/04 01:52:02;;;;;;;5.50;4.03;;;20.40;40.30;;;;;;6279928;22;20046;-79
2021/03/04 01:54:28;;;;;;;5.32;3.45;;;20.40;40.10;;;;;;6280192;22;20310;-79
2021/03/04 01:56:54;;;;;;;4.32;3.20;;;20.40;40.20;;;;;;6307397;22;20011;-79
2021/03/04 01:59:22;;;;;;;3.63;3.10;;;20.40;40.20;;;;;;6280130;22;20011;-79
2021/03/04 02:01:48;;;;;;;5.05;3.47;;;20.40;40.10;;;;;;6280364;22;20015;-79
2021/03/04 02:04:14;;;;;;;4.90;3.45;;;20.40;40.20;;;;;;6306857;22;20060;-79
2021/03/04 02:06:57;;;;;;;3.80;3.40;;;20.40;40.10;;;;;;6279925;22;20438;-79
2021/03/04 02:09:25;;;;;;;3.58;3.28;;;20.40;40.00;;;;;;6254774;22;20007;-80
2021/03/04 02:11:56;;;;;;;3.40;3.08;;;20.50;40.60;;;;;;6254138;22;20018;-79
2021/03/04 02:14:36;;;;;;;4.68;3.35;;;20.40;39.90;;;;;;6280130;22;20103;-79
2021/03/04 02:17:06;;;;;;;3.28;2.95;;;20.40;40.10;;;;;;6250573;22;20016;-79
2021/03/04 02:19:59;;;;;;;3.25;2.55;;;20.40;40.60;;;;;;6249052;22;20424;-79
2021/03/04 02:22:43;;;;;;;3.40;3.00;;;20.40;40.00;;;;;;6245197;22;20072;-80
2021/03/04 02:25:37;;;;;;;4.63;3.75;;;20.40;40.20;;;;;;6274697;22;20138;-79
2021/03/04 02:28:04;;;;;;;3.45;3.15;;;20.40;40.20;;;;;;6242275;22;20345;-79
2021/03/04 02:30:34;;;;;;;4.65;3.38;;;20.40;40.00;;;;;;6285695;22;20345;-79
2021/03/04 02:33:27;;;;;;;5.55;3.42;;;20.40;40.10;;;;;;6252076;22;20473;-79
2021/03/04 02:35:54;;;;;;;3.75;3.28;;;20.40;40.10;;;;;;6245480;22;20314;-79
2021/03/04 02:38:21;;;;;;;4.53;3.40;;;20.40;40.00;;;;;;6246800;22;20015;-79
2021/03/04 02:40:51;;;;;;;3.97;3.10;;;20.40;40.00;;;;;;6249458;22;20019;-79
2021/03/04 02:43:19;;;;;;;4.22;3.33;;;20.40;40.10;;;;;;6243766;22;20445;-79
2021/03/04 02:45:45;;;;;;;4.72;3.42;;;20.40;40.10;;;;;;6285610;22;20011;-79
2021/03/04 02:48:13;;;;;;;4.05;3.28;;;20.30;40.00;;;;;;6253478;22;20022;-79
2021/03/04 02:50:40;;;;;;;4.47;3.35;;;20.40;40.10;;;;;;6279414;22;20065;-79
2021/03/04 02:53:08;;;;;;;4.30;3.40;;;20.30;39.90;;;;;;6253856;22;20053;-79
2021/03/04 02:55:35;;;;;;;4.60;3.50;;;20.40;40.00;;;;;;6250814;22;20019;-79
2021/03/04 02:58:01;;;;;;;4.28;3.30;;;20.40;40.00;;;;;;6254493;22;20015;-79
2021/03/04 03:00:29;;;;;;;4.63;3.47;;;20.30;40.00;;;;;;6279383;22;20018;-79
2021/03/04 03:02:57;;;;;;;3.40;3.10;;;20.30;39.90;;;;;;6246520;22;20019;-79
2021/03/04 03:05:24;;;;;;;3.25;2.80;;;20.40;40.10;;;;;;6248965;22;20015;-79
2021/03/04 03:07:50;;;;;;;3.97;3.15;;;20.40;40.00;;;;;;6249145;22;20011;-80
2021/03/04 03:10:17;;;;;;;5.18;3.70;;;20.40;40.10;;;;;;6249060;22;20321;-80
2021/03/04 03:12:45;;;;;;;4.13;3.05;;;20.30;39.90;;;;;;6249663;22;20046;-79
2021/03/04 03:15:14;;;;;;;4.03;3.28;;;20.30;40.00;;;;;;6248548;22;20019;-79
2021/03/04 03:17:41;;;;;;;3.92;3.40;;;20.40;40.00;;;;;;6248847;22;20509;-79
2021/03/04 03:20:10;;;;;;;2.90;2.58;;;20.40;39.90;;;;;;6223370;22;20337;-79
2021/03/04 03:22:36;;;;;;;3.80;2.85;;;20.30;40.10;;;;;;6243090;22;20342;-79
2021/03/04 03:25:04;;;;;;;3.40;3.08;;;20.40;39.90;;;;;;6247220;22;20011;-79
2021/03/04 03:27:30;;;;;;;3.65;3.30;;;20.30;39.90;;;;;;6254140;22;20105;-79
2021/03/04 03:29:56;;;;;;;3.40;3.10;;;20.40;39.90;;;;;;6279310;22;20066;-79
2021/03/04 03:32:24;;;;;;;3.90;2.85;;;20.40;40.00;;;;;;6306819;22;20090;-80
2021/03/04 03:34:50;;;;;;;4.95;3.65;;;20.40;39.90;;;;;;6277288;22;20022;-79
2021/03/04 03:37:17;;;;;;;4.55;2.95;;;20.30;39.90;;;;;;6232632;22;20018;-79
2021/03/04 03:39:43;;;;;;;3.13;2.72;;;20.40;39.90;;;;;;6224099;22;20019;-79
2021/03/04 03:42:10;;;;;;;3.22;2.88;;;20.40;40.00;;;;;;6225753;22;20088;-79
2021/03/04 03:44:37;;;;;;;3.17;2.83;;;20.30;40.00;;;;;;6244520;22;20019;-79
2021/03/04 03:47:05;;;;;;;3.17;2.88;;;20.40;40.20;;;;;;6253675;22;20045;-79
2021/03/04 03:49:32;;;;;;;3.78;3.35;;;20.40;40.00;;;;;;6307340;22;20090;-79
2021/03/04 03:52:00;;;;;;;3.97;3.00;;;20.40;40.00;;;;;;6253816;22;20057;-79
2021/03/04 03:54:29;;;;;;;4.20;3.22;;;20.40;40.00;;;;;;6250451;22;20015;-79
2021/03/04 03:56:59;;;;;;;4.28;3.40;;;20.40;40.00;;;;;;6253863;22;20015;-79
2021/03/04 03:59:25;;;;;;;3.47;2.97;;;20.40;39.90;;;;;;6279372;22;20011;-79
2021/03/04 04:01:52;;;;;;;3.25;2.95;;;20.40;39.80;;;;;;6254014;22;20011;-79
2021/03/04 04:04:19;;;;;;;3.25;2.95;;;20.30;39.90;;;;;;6254018;22;20023;-79
2021/03/04 04:06:44;;;;;;;3.13;2.72;;;20.30;40.10;;;;;;6253704;22;20367;-80
2021/03/04 04:09:12;;;;;;;3.53;2.90;;;20.40;39.90;;;;;;6279271;22;20011;-79
2021/03/04 04:11:38;;;;;;;3.60;2.88;;;20.40;39.80;;;;;;6235386;22;20042;-79
2021/03/04 04:14:04;;;;;;;3.78;2.78;;;20.40;40.10;;;;;;6248315;22;20023;-79
2021/03/04 04:16:30;;;;;;;3.65;3.00;;;20.40;40.00;;;;;;6248260;22;20050;-79
2021/03/04 04:18:56;;;;;;;3.38;2.60;;;20.30;39.90;;;;;;6245511;22;20038;-79
2021/03/04 04:21:23;;;;;;;3.78;3.10;;;20.30;39.80;;;;;;6247025;22;20340;-79
2021/03/04 04:23:49;;;;;;;3.45;3.08;;;20.30;39.90;;;;;;6251108;22;20152;-79
2021/03/04 04:26:16;;;;;;;4.03;2.90;;;20.30;39.80;;;;;;6249737;22;20015;-80
2021/03/04 04:28:41;;;;;;;3.42;3.03;;;20.40;39.80;;;;;;6248193;22;20062;-79
2021/03/04 04:31:07;;;;;;;2.85;2.58;;;20.40;39.80;;;;;;6248399;22;20015;-80
2021/03/04 04:33:33;;;;;;;3.60;3.30;;;20.40;39.80;;;;;;6248284;22;20038;-79
2021/03/04 04:35:59;;;;;;;3.47;2.90;;;20.40;39.70;;;;;;6246914;22;20092;-79
2021/03/04 04:38:25;;;;;;;3.38;2.80;;;20.30;39.60;;;;;;6253281;22;20023;-79
2021/03/04 04:40:51;;;;;;;3.17;2.65;;;20.30;39.60;;;;;;6253121;22;20345;-79
2021/03/04 04:43:17;;;;;;;3.60;2.72;;;20.40;39.60;;;;;;6253249;22;20011;-79
2021/03/04 04:45:43;;;;;;;2.90;2.60;;;20.30;39.70;;;;;;6279006;22;20025;-79
2021/03/04 04:48:09;;;;;;;2.72;2.40;;;20.40;39.60;;;;;;6248092;22;20364;-79
2021/03/04 04:50:34;;;;;;;3.60;2.85;;;20.40;39.60;;;;;;6245649;22;20012;-79
2021/03/04 04:53:00;;;;;;;3.47;2.78;;;20.40;39.60;;;;;;6247659;22;20019;-79
2021/03/04 04:55:26;;;;;;;3.00;2.70;;;20.30;39.70;;;;;;6249345;22;20016;-79
2021/03/04 04:57:51;;;;;;;4.38;2.95;;;20.30;39.60;;;;;;6250279;22;20067;-79
2021/03/04 05:00:18;;;;;;;3.20;2.78;;;20.40;39.60;;;;;;6246527;22;20433;-79
2021/03/04 05:02:43;;;;;;;3.88;2.83;;;20.40;39.70;;;;;;6253154;22;20041;-79
2021/03/04 05:05:10;;;;;;;3.20;2.80;;;20.30;39.60;;;;;;6279040;22;20015;-79
2021/03/04 05:07:36;;;;;;;3.22;2.80;;;20.40;39.60;;;;;;6253903;22;20019;-79
2021/03/04 05:10:06;;;;;;;3.33;2.67;;;20.30;39.60;;;;;;6250786;22;20010;-79
2021/03/04 05:12:32;;;;;;;3.47;2.60;;;20.30;39.60;;;;;;6246572;22;20026;-79
2021/03/04 05:14:57;;;;;;;3.65;2.72;;;20.30;39.80;;;;;;6278818;22;20445;-79
2021/03/04 05:17:23;;;;;;;3.30;2.53;;;20.30;39.60;;;;;;6227728;22;20070;-79
2021/03/04 05:19:49;;;;;;;2.83;2.40;;;20.30;39.80;;;;;;6247930;22;20039;-79
2021/03/04 05:22:15;;;;;;;4.03;2.90;;;20.30;39.60;;;;;;6246892;22;20027;-79
2021/03/04 05:24:42;;;;;;;2.80;2.50;;;20.40;39.60;;;;;;6246086;22;20436;-79
2021/03/04 05:27:08;;;;;;;3.53;2.95;;;20.40;39.90;;;;;;6247828;22;20438;-79
2021/03/04 05:29:33;;;;;;;2.75;2.40;;;20.40;40.30;;;;;;6245905;22;20008;-79
2021/03/04 05:31:59;;;;;;;2.33;2.13;;;20.40;39.80;;;;;;6278818;22;20018;-79
2021/03/04 05:34:25;;;;;;;2.92;2.50;;;20.30;39.60;;;;;;6305835;22;20015;-79
2021/03/04 05:36:50;;;;;;;4.25;2.67;;;20.30;39.80;;;;;;6278266;22;20015;-79
2021/03/04 05:39:16;;;;;;;3.33;2.67;;;20.30;39.60;;;;;;6279326;22;20018;-79
2021/03/04 05:41:42;;;;;;;2.60;2.40;;;20.30;39.70;;;;;;6254579;22;20037;-79
2021/03/04 05:44:09;;;;;;;2.70;2.50;;;20.30;39.70;;;;;;6229637;22;20019;-79
2021/03/04 05:46:36;;;;;;;2.50;2.30;;;20.30;39.80;;;;;;6249009;22;20456;-79
2021/03/04 05:49:03;;;;;;;3.05;2.42;;;20.30;39.80;;;;;;6249434;22;20025;-79
2021/03/04 05:51:52;;;;;;;4.05;3.00;;;20.30;39.80;;;;;;6286326;22;20015;-79
2021/03/04 05:54:21;;;;;;;2.88;2.40;;;20.30;39.70;;;;;;6252168;22;20023;-79
2021/03/04 05:56:48;;;;;;;2.72;2.53;;;20.30;39.90;;;;;;6247195;22;20022;-79
2021/03/04 05:59:14;;;;;;;5.97;2.50;;;20.30;39.70;;;;;;6249205;22;20012;-79
2021/03/04 06:01:42;;;;;;;10.45;2.35;;;20.30;40.10;;;;;;6252286;22;20464;-79
2021/03/04 06:04:13;;;;;;;5.32;2.30;;;20.30;40.20;;;;;;6248030;22;20034;-79
2021/03/04 06:07:10;;;;;;;7.10;2.33;;;20.40;40.10;;;;;;6254170;22;20016;-79
2021/03/04 06:09:40;;;;;;;5.20;2.80;;;20.40;39.80;;;;;;6223858;22;20249;-79
2021/03/04 06:15:53;;;;;;;4.55;2.17;;;20.50;39.90;;;;;;6251788;22;20019;-79
2021/03/04 06:18:51;;;;;;;5.65;2.80;;;20.50;39.40;;;;;;6224988;22;20023;-79
2021/03/04 06:21:29;;;;;;;7.15;2.70;;;20.50;39.50;;;;;;6246998;22;20420;-79
2021/03/04 06:24:43;;;;;;;4.10;2.33;;;20.40;39.50;;;;;;6251953;22;20087;-79
2021/03/04 06:27:28;;;;;;;6.32;2.40;;;20.40;39.60;;;;;;6157197;23;20025;-78
2021/03/04 06:30:17;;;;;;;5.45;2.75;;;20.30;39.60;;;;;;6181916;23;20444;-79
2021/03/04 06:33:05;;;;;;;9.85;2.70;;;20.30;39.50;;;;;;6239709;22;20027;-78
2021/03/04 06:40:16;;;;;;;5.07;2.53;;;20.30;39.60;;;;;;6180416;22;20099;-79
2021/03/04 06:43:14;;;;;;;8.73;2.33;;;20.30;40.20;;;;;;6249589;22;20472;-78
2021/03/04 06:46:46;;;;;;;7.80;2.50;;;20.40;40.60;;;;;;6282179;22;20104;-79
2021/03/04 06:57:44;;;;;;;7.40;2.92;;;20.40;40.40;;;;;;6289892;22;20019;-79
2021/03/04 07:04:23;;;;;;;6.70;2.45;;;20.30;40.40;;;;;;6181556;23;20439;-79
2021/03/04 07:07:22;;;;;;;4.60;2.53;;;20.30;40.40;;;;;;6155698;23;20513;-79
2021/03/04 07:10:12;;;;;;;4.80;2.50;;;20.30;40.50;;;;;;6150823;23;20021;-79
2021/03/04 07:16:03;;;;;;;8.52;2.80;;;20.30;40.40;;;;;;6179693;23;20072;-79
2021/03/04 07:19:18;;;;;;;8.40;2.85;;;20.30;40.40;;;;;;6181166;23;20020;-79
2021/03/04 07:23:00;;;;;;;5.30;2.17;;;20.30;40.40;;;;;;6158573;23;20048;-79
2021/03/04 07:25:54;;;;;;;4.28;2.33;;;20.30;40.40;;;;;;6167169;23;20070;-79
2021/03/04 07:28:24;;;;;;;4.85;2.38;;;20.30;40.30;;;;;;6182483;23;20059;-79
2021/03/04 07:31:00;;;;;;;5.60;2.28;;;20.30;40.40;;;;;;6156720;23;20020;-79
2021/03/04 07:33:44;;;;;;;3.78;2.55;;;20.30;40.40;;;;;;6170058;22;20020;-79
2021/03/04 07:36:25;;;;;;;5.22;2.20;;;20.30;40.40;;;;;;6251573;22;20429;-79
2021/03/04 07:38:55;;;;;;;4.22;2.47;;;20.30;40.40;;;;;;6248761;22;20018;-79
2021/03/04 07:41:57;;;;;;;3.13;2.10;;;20.30;40.40;;;;;;6262345;22;20488;-79
2021/03/04 07:48:28;;;;;;;3.40;2.20;;;20.40;40.40;;;;;;6180032;23;20021;-79
2021/03/04 07:51:03;;;;;;;2.97;2.03;;;20.40;40.30;;;;;;6133520;23;20021;-79
2021/03/04 07:58:30;;;;;;;;;;;;;;;;;;;;;
2021/03/04 08:05:04;;;;;;;4.25;1.85;;;20.30;40.40;;;;;;6127968;23;20014;-79
2021/03/04 08:12:57;;;;;;;5.30;2.27;;;20.40;40.40;;;;;;6223458;22;20030;-79
2021/03/04 08:16:14;;;;;;;;;;;;;;;;;;;;;
2021/03/04 08:19:52;;;;;;;3.78;2.13;;;20.40;40.40;;;;;;6282527;22;20122;-79
2021/03/04 08:26:36;;;;;;;5.55;2.10;;;20.40;40.30;;;;;;6280002;22;20376;-79
2021/03/04 08:29:14;;;;;;;3.85;1.98;;;20.40;40.30;;;;;;6278827;22;20015;-79
2021/03/04 08:32:33;;;;;;;4.47;2.53;;;20.30;40.30;;;;;;6228946;22;20040;-79
2021/03/04 08:35:26;;;;;;;3.00;1.98;;;20.40;40.30;;;;;;6284187;22;20391;-79
2021/03/04 08:38:19;;;;;;;4.35;2.13;;;20.30;40.20;;;;;;6254058;22;20361;-79
2021/03/04 08:49:40;;;;;;;10.63;1.98;;;20.30;40.30;;;;;;6184897;23;20017;-79
2021/03/04 09:03:58;;;;;;;2.42;2.03;;;20.30;40.30;;;;;;6276132;22;20031;-79
2021/03/04 09:07:41;;;;;;;2.90;1.90;;;20.40;40.50;;;;;;6256049;22;20094;-78
2021/03/04 09:15:55;;;;;;;;;;;;;;;;;;;;;
2021/03/04 09:25:58;;;;;;;3.97;1.90;;;20.40;40.40;;;;;;6170680;22;20074;-79
2021/03/04 09:28:27;;;;;;;2.00;1.70;;;20.40;40.30;;;;;;6178018;23;20028;-79
2021/03/04 09:31:19;;;;;;;2.55;1.60;;;20.40;40.40;;;;;;6185142;23;20024;-79
2021/03/04 09:38:14;;;;;;;;;;;;;;;;;;;;;
2021/03/04 09:41:11;;;;;;;2.72;1.88;;;20.40;40.40;;;;;;6285152;22;20103;-78
2021/03/04 09:56:20;;;;;;;;;;;;;;;;;;;;;
2021/03/04 10:03:36;;;;;;;2.70;1.92;;;20.30;40.20;;;;;;6182487;23;20100;-78
2021/03/04 10:06:54;;;;;;;1.98;1.70;;;20.40;40.40;;;;;;6182047;23;20021;-78
2021/03/04 10:13:24;;;;;;;;;;;;;;;;;;;;;
2021/03/04 10:16:45;;;;;;;2.42;1.88;;;20.30;40.50;;;;;;6127051;23;20021;-78
2021/03/04 10:27:20;;;;;;;2.25;1.95;;;20.40;40.10;;;;;;5991478;23;20047;-78
2021/03/04 10:34:49;;;;;;;2.88;1.73;;;20.30;40.00;;;;;;6123082;23;20079;-78
2021/03/04 10:38:30;;;;;;;3.78;1.95;;;20.30;40.10;;;;;;6105758;23;20061;-79
2021/03/04 10:46:17;;;;;;;4.22;1.90;;;20.30;40.70;;;;;;6205349;23;20357;-77
2021/03/04 11:01:23;;;;;;;2.50;1.50;;;20.40;40.00;;;;;;6168338;23;20363;-79
2021/03/04 11:05:15;;;;;;;2.95;1.83;;;20.40;40.00;;;;;;6159143;23;20023;-79
2021/03/04 11:12:14;;;;;;;6.60;1.90;;;20.30;40.10;;;;;;6187361;23;20048;-79
2021/03/04 11:14:46;;;;;;;3.53;2.00;;;20.30;40.00;;;;;;6220372;22;20414;-79
2021/03/04 11:25:12;;;;;;;3.38;1.75;;;20.30;40.00;;;;;;6157663;23;20099;-79
2021/03/04 11:32:37;;;;;;;2.15;1.35;;;20.30;40.00;;;;;;6064961;23;20019;-79
2021/03/04 11:40:01;;;;;;;2.47;1.67;;;20.30;40.00;;;;;;6029943;23;20031;-79
2021/03/04 11:43:37;;;;;;;2.00;1.35;;;20.30;40.10;;;;;;6063826;23;20093;-79
2021/03/04 11:46:47;;;;;;;;;;;20.30;40.10;;;;;;6075167;23;20022;-79
2021/03/04 11:50:39;;;;;;;2.85;1.63;;;20.30;39.90;;;;;;6121833;23;19984;-79
2021/03/04 11:59:03;;;;;;;4.43;1.30;;;20.30;40.20;;;;;;6115590;23;20627;-78
2021/03/04 12:06:20;;;;;;;3.70;1.48;;;20.30;40.10;;;;;;6285092;22;20029;-78
2021/03/04 12:25:19;;;;;;;;;;;;;;;;;;;;;
2021/03/04 12:33:29;;;;;;;4.15;1.70;;;20.30;39.80;;;;;;6112897;23;20029;-78
2021/03/04 12:41:28;;;;;;;3.92;2.00;;;20.30;40.20;;;;;;6056890;23;20019;-78
2021/03/04 12:44:51;;;;;;;3.58;1.88;;;20.30;39.90;;;;;;6126898;23;20156;-78
2021/03/04 13:11:25;;;;;;;;;;;;;;;;;;;;;
2021/03/04 13:15:25;;;;;;;4.38;1.92;;;20.40;39.80;;;;;;6282167;22;19918;-78
2021/03/04 13:19:30;;;;;;;4.15;1.90;;;20.30;39.70;;;;;;6233109;22;20028;-78
2021/03/04 13:35:35;;;;;;;3.92;1.80;;;20.40;39.80;;;;;;6014384;23;20124;-78
2021/03/04 13:46:26;;;;;;;7.67;2.70;;;20.30;39.60;;;;;;6122747;23;20065;-78
2021/03/04 14:17:16;;;;;;;;;;;;;;;;;;;;;
2021/03/04 14:49:31;;;;;;;;;;;;;;;;;;;;;
2021/03/04 14:52:49;;;;;;;7.35;2.47;;;20.20;39.30;;;;;;6095420;23;20037;-79
2021/03/04 14:56:50;;;;;;;4.75;1.65;;;20.30;39.30;;;;;;6067893;23;20006;-78
2021/03/04 15:00:27;;;;;;;3.47;1.73;;;20.20;40.30;;;;;;6007966;23;20102;-78
2021/03/04 15:04:03;;;;;;;6.45;2.20;;;20.30;39.90;;;;;;5978483;23;20126;-78
2021/03/04 15:18:23;;;;;;;5.13;2.40;;;20.20;39.80;;;;;;6003753;23;20059;-78
2021/03/04 15:28:52;;;;;;;;;;;;;;;;;;;;;
2021/03/04 15:32:10;;;;;;;5.53;1.88;;;20.20;39.80;;;;;;6183954;23;20012;-78
2021/03/04 15:38:43;;;;;;;7.90;2.20;;;20.20;39.70;;;;;;6184161;23;20091;-78
2021/03/04 15:42:41;;;;;;;;;;;;;;;;;;;;;
2021/03/04 15:45:13;;;;;;;4.13;2.35;;;20.20;39.60;;;;;;6078608;23;20026;-79
2021/03/04 15:51:53;;;;;;;5.55;2.25;;;20.20;39.70;;;;;;6278468;22;20015;-78
2021/03/04 15:54:54;;;;;;;8.40;2.45;;;20.20;39.60;;;;;;6219293;22;20077;-79
2021/03/04 15:58:39;;;;;;;4.90;1.50;;;20.30;39.70;;;;;;6253478;22;20015;-78
2021/03/04 16:02:14;;;;;;;;;;;;;;;;;;;;;
2021/03/04 16:09:04;;;;;;;4.35;1.83;;;20.20;39.70;;;;;;6275066;22;20130;-79
2021/03/04 16:16:24;;;;;;;5.40;1.90;;;20.20;39.90;;;;;;6113120;23;20104;-78
2021/03/04 16:23:21;;;;;;;7.07;1.50;;;20.20;39.80;;;;;;6143573;23;20017;-78
2021/03/04 16:30:31;;;;;;;5.40;2.03;;;20.20;39.80;;;;;;6093529;23;20085;-78
2021/03/04 16:33:45;;;;;;;5.00;1.83;;;20.20;39.80;;;;;;6112690;23;20507;-78
2021/03/04 16:36:14;;;;;;;4.93;1.88;;;20.20;39.70;;;;;;6143755;23;20107;-78
2021/03/04 16:39:20;;;;;;;6.70;2.20;;;20.20;39.80;;;;;;6186250;23;20024;-78
2021/03/04 16:42:32;;;;;;;5.35;1.80;;;20.20;39.50;;;;;;6184222;22;20015;-78
2021/03/04 16:49:18;;;;;;;6.13;2.03;;;20.20;39.70;;;;;;6295707;22;20107;-78
2021/03/04 16:52:35;;;;;;;4.90;2.00;;;20.20;39.50;;;;;;6249983;22;20381;-78
2021/03/04 16:56:05;;;;;;;4.95;1.70;;;20.20;39.50;;;;;;6228902;22;20022;-78
2021/03/04 16:59:12;;;;;;;2.88;1.58;;;20.20;39.50;;;;;;6259198;22;20072;-78
2021/03/04 17:01:57;;;;;;;4.32;2.00;;;20.20;40.30;;;;;;6253527;22;20011;-78
2021/03/04 17:04:24;;;;;;;4.47;1.75;;;20.20;39.60;;;;;;6248586;22;20019;-78
2021/03/04 17:06:50;;;;;;;4.28;1.80;;;20.20;39.50;;;;;;6225093;22;20058;-79
2021/03/04 17:09:16;;;;;;;8.18;2.35;;;20.20;39.60;;;;;;6252628;22;20011;-78
2021/03/04 17:11:42;;;;;;;5.30;1.83;;;20.20;39.60;;;;;;6279091;22;20096;-78
2021/03/04 17:14:07;;;;;;;4.13;1.83;;;20.20;39.60;;;;;;6278815;22;20015;-79
2021/03/04 17:16:33;;;;;;;4.97;2.05;;;20.20;39.50;;;;;;6222667;22;20107;-79
2021/03/04 17:18:59;;;;;;;5.78;1.85;;;20.20;39.50;;;;;;6222820;22;20441;-78
2021/03/04 17:21:25;;;;;;;4.53;1.80;;;20.20;39.50;;;;;;6243826;22;20015;-79
2021/03/04 17:23:50;;;;;;;6.97;2.00;;;20.20;39.40;;;;;;6287031;22;20015;-79
2021/03/04 17:26:22;;;;;;;5.53;1.92;;;20.20;39.40;;;;;;6224142;22;20020;-78
2021/03/04 17:28:49;;;;;;;7.00;2.08;;;20.30;39.40;;;;;;6248162;22;20019;-79
2021/03/04 17:31:15;;;;;;;5.95;2.10;;;20.20;39.40;;;;;;6233964;22;20015;-78
2021/03/04 17:33:40;;;;;;;4.70;2.20;;;20.20;39.40;;;;;;6284938;22;20023;-78
2021/03/04 17:36:07;;;;;;;3.92;1.55;;;20.20;39.50;;;;;;6249530;22;20437;-78
2021/03/04 17:38:34;;;;;;;6.03;2.13;;;20.20;39.40;;;;;;6247237;22;20499;-79
2021/03/04 17:40:59;;;;;;;5.28;2.03;;;20.20;39.40;;;;;;6226920;22;20015;-78
2021/03/04 17:43:25;;;;;;;4.82;2.15;;;20.20;39.40;;;;;;6250839;22;20441;-79
2021/03/04 17:45:51;;;;;;;3.53;1.50;;;20.20;39.40;;;;;;6251252;22;20333;-78
2021/03/04 17:48:16;;;;;;;4.05;1.85;;;20.20;39.60;;;;;;6279365;22;20023;-78
2021/03/04 17:50:42;;;;;;;3.47;1.60;;;20.20;39.60;;;;;;6260565;22;20069;-79
2021/03/04 17:53:08;;;;;;;6.60;2.03;;;20.20;39.40;;;;;;6250981;22;20394;-79
2021/03/04 17:55:34;;;;;;;4.55;2.03;;;20.20;39.40;;;;;;6243644;22;20012;-78
2021/03/04 17:58:00;;;;;;;5.30;1.88;;;20.20;39.30;;;;;;6249087;22;20011;-78
2021/03/04 18:00:27;;;;;;;1.67;1.50;;;20.20;39.50;;;;;;6250165;22;20098;-79
2021/03/04 18:02:53;;;;;;;3.97;1.88;;;20.20;39.40;;;;;;6236249;22;20345;-78
2021/03/04 18:05:19;;;;;;;5.35;1.95;;;20.20;39.30;;;;;;6297902;22;20020;-78
2021/03/04 18:07:46;;;;;;;3.72;1.90;;;20.20;39.30;;;;;;6253421;22;20011;-78
2021/03/04 18:10:12;;;;;;;6.90;2.13;;;20.20;39.30;;;;;;6253903;22;20011;-78
2021/03/04 18:12:38;;;;;;;4.25;1.30;;;20.20;39.30;;;;;;6253895;22;20022;-78
2021/03/04 18:15:06;;;;;;;4.32;1.77;;;20.20;39.90;;;;;;6307259;22;20016;-79
2021/03/04 18:17:32;;;;;;;7.63;1.70;;;20.20;40.20;;;;;;6279390;22;20102;-78
2021/03/04 18:19:58;;;;;;;6.47;1.67;;;20.20;39.40;;;;;;6254515;22;20019;-78
2021/03/04 18:22:24;;;;;;;3.60;1.67;;;20.20;39.50;;;;;;6250764;22;20043;-78
2021/03/04 18:24:50;;;;;;;2.83;1.70;;;20.20;39.60;;;;;;6249214;22;20349;-78
2021/03/04 18:27:17;;;;;;;3.15;1.40;;;20.10;39.50;;;;;;6250202;22;20047;-78
2021/03/04 18:29:43;;;;;;;5.50;2.17;;;20.10;39.80;;;;;;6254038;22;20043;-79
2021/03/04 18:32:09;;;;;;;4.68;1.88;;;20.10;39.70;;;;;;6251410;22;20310;-79
2021/03/04 18:34:35;;;;;;;4.57;1.60;;;20.20;39.80;;;;;;6279630;22;20022;-78
2021/03/04 18:37:01;;;;;;;3.75;1.55;;;20.20;39.70;;;;;;6254273;22;20453;-78
2021/03/04 18:39:26;;;;;;;2.72;1.35;;;20.20;39.70;;;;;;6284301;22;20061;-78
2021/03/04 18:41:52;;;;;;;2.90;1.65;;;20.10;40.00;;;;;;6251738;22;20034;-78
2021/03/04 18:44:18;;;;;;;5.18;2.22;;;20.10;39.70;;;;;;6250093;22;20018;-78
2021/03/04 18:46:44;;;;;;;4.82;1.70;;;20.10;40.00;;;;;;6250417;22;20016;-79
2021/03/04 18:49:11;;;;;;;4.05;1.77;;;20.10;40.00;;;;;;6246471;22;20098;-78
2021/03/04 18:51:37;;;;;;;4.95;1.52;;;20.10;40.00;;;;;;6243172;22;20019;-78
2021/03/04 18:54:02;;;;;;;5.65;1.98;;;20.10;39.70;;;;;;6250018;22;20360;-78
2021/03/04 18:56:28;;;;;;;4.47;1.70;;;20.10;39.60;;;;;;6252247;22;20022;-79
2021/03/04 18:58:54;;;;;;;3.22;1.58;;;20.10;40.00;;;;;;6226834;22;20011;-78
2021/03/04 19:01:19;;;;;;;2.67;1.45;;;20.10;39.90;;;;;;6246489;22;20118;-78
2021/03/04 19:03:45;;;;;;;5.18;1.75;;;20.10;39.80;;;;;;6254864;22;20026;-78
2021/03/04 19:06:10;;;;;;;3.95;1.40;;;20.10;39.60;;;;;;6246118;22;20114;-78
2021/03/04 19:08:36;;;;;;;4.72;1.55;;;20.10;40.00;;;;;;6249135;22;20047;-78
2021/03/04 19:11:02;;;;;;;6.85;1.85;;;20.10;39.60;;;;;;6248765;22;20333;-78
2021/03/04 19:13:28;;;;;;;3.88;1.77;;;20.20;39.70;;;;;;6229811;22;20015;-78
2021/03/04 19:15:53;;;;;;;5.07;2.08;;;20.10;40.00;;;;;;6249911;22;20016;-78
2021/03/04 19:18:19;;;;;;;4.80;1.67;;;20.20;39.60;;;;;;6288002;22;20012;-78
2021/03/04 19:20:45;;;;;;;2.60;1.67;;;20.10;39.80;;;;;;6248787;22;20046;-78
2021/03/04 19:23:10;;;;;;;4.75;1.67;;;20.10;39.60;;;;;;6248222;22;20016;-78
2021/03/04 19:25:36;;;;;;;3.40;1.77;;;20.10;40.40;;;;;;6248765;22;20026;-78
2021/03/04 19:28:03;;;;;;;4.68;1.95;;;20.20;39.70;;;;;;6248503;22;20042;-78
2021/03/04 19:30:28;;;;;;;2.60;1.77;;;20.20;39.70;;;;;;6232635;22;20338;-78
2021/03/04 19:32:54;;;;;;;2.65;1.50;;;20.10;39.50;;;;;;6223554;22;20008;-79
2021/03/04 19:35:20;;;;;;;2.35;1.35;;;20.10;39.70;;;;;;6246258;22;20011;-79
2021/03/04 19:37:45;;;;;;;4.55;1.35;;;20.20;39.70;;;;;;6254792;22;20015;-78
2021/03/04 19:40:12;;;;;;;3.42;1.52;;;20.10;39.60;;;;;;6307304;22;20031;-78